Bowling Green, Kentucky
Current Conditions -  °F | °C
As of 1:53 PM on Thursday 23 Oct 2014 (Local Time) from KBWG Reporting Station
Clear Clear  
Wind Chill: 63°   Ceiling: Unl
Heat Index: 63°   Visibility: 10mi
Dew Point: 42°   Wind: 0mph
Humidity: 46%   Direction: NA
Pressure: 30.16"   Gusts: NA
Location:  36.99°N, 86.44°W
Report Text: KBWG 231853Z AUTO 00000KT 10SM CLR 17/06 A3016 RMK AO2 SLP212 T01720056
Loading
Personal Weather Stations






























Interactive Weather Map New forecast layout! Learn more

10-Day Weather Forecast

Advertisements
Track Severe Weather on mobile